Time;durP1;ratioP1;P1;durP2;ratioP2;P2;SDS_P1;SDS_P2;PMS_P1;PMS_P2;Temp;Humidity;BMP_temperature;BMP_pressure;BME280_temperature;BME280_humidity;BME280_pressure;Samples;Min_cycle;Max_cycle;Signal;HPM_P1;HPM_P2
2021/10/13 00:01:00;;;;;;;0.20;0.20;;;8.30;90.10;;;;;;4848151;29;20045;-82
2021/10/13 00:03:26;;;;;;;0.10;0.10;;;8.30;90.00;;;;;;4879266;29;20395;-82
2021/10/13 00:05:52;;;;;;;0.13;0.13;;;8.40;90.00;;;;;;4863166;29;20048;-82
2021/10/13 00:08:18;;;;;;;0.00;0.00;;;8.40;90.00;;;;;;4863210;29;20059;-82
2021/10/13 00:10:44;;;;;;;0.10;0.10;;;8.40;90.00;;;;;;4863106;29;20033;-82
2021/10/13 00:13:12;;;;;;;0.28;0.22;;;8.50;90.00;;;;;;4863233;29;20052;-82
2021/10/13 00:15:51;;;;;;;0.63;0.28;;;8.60;90.00;;;;;;4846755;29;20088;-82
2021/10/13 00:18:27;;;;;;;0.20;0.10;;;8.80;90.10;;;;;;4864142;29;20496;-82
2021/10/13 00:24:04;;;;;;;0.10;0.10;;;8.50;90.20;;;;;;4782566;29;20160;-82
2021/10/13 00:26:59;;;;;;;0.13;0.13;;;8.40;90.20;;;;;;4789953;29;20090;-82
2021/10/13 00:30:22;;;;;;;0.10;0.10;;;8.40;90.20;;;;;;4761406;30;20055;-82
2021/10/13 00:37:03;;;;;;;0.10;0.10;;;8.30;90.40;;;;;;4663407;30;20051;-81
2021/10/13 00:40:04;;;;;;;0.20;0.20;;;8.20;90.40;;;;;;4628713;31;20056;-81
2021/10/13 00:42:53;;;;;;;0.17;0.10;;;8.20;90.40;;;;;;4567239;31;20517;-81
2021/10/13 00:52:16;;;;;;;0.30;0.13;;;8.20;90.50;;;;;;4524707;31;20462;-81
2021/10/13 00:55:00;;;;;;;0.10;0.10;;;8.20;90.50;;;;;;4557541;31;20534;-81
2021/10/13 00:57:58;;;;;;;0.40;0.10;;;8.20;90.50;;;;;;4592017;30;20470;-80
2021/10/13 01:01:23;;;;;;;0.00;0.00;;;8.20;90.80;;;;;;4636052;30;20101;-81
2021/10/13 01:05:27;;;;;;;0.10;0.10;;;8.10;90.70;;;;;;4583789;31;20470;-80
2021/10/13 01:11:41;;;;;;;0.10;0.10;;;8.10;90.60;;;;;;4597733;31;20052;-81
2021/10/13 01:37:13;;;;;;;0.20;0.20;;;8.30;90.50;;;;;;4644765;30;20066;-82
2021/10/13 01:41:12;;;;;;;0.08;0.08;;;8.30;90.50;;;;;;4595784;31;20123;-81
2021/10/13 01:43:53;;;;;;;0.17;0.17;;;8.40;90.40;;;;;;4566310;31;21049;-82
2021/10/13 01:59:03;;;;;;;0.10;0.10;;;8.20;90.50;;;;;;4538927;31;20065;-81
2021/10/13 02:05:35;;;;;;;0.35;0.10;;;8.30;90.70;;;;;;4492525;31;20188;-81
2021/10/13 02:16:36;;;;;;;0.10;0.10;;;8.10;90.80;;;;;;4465528;32;20063;-81
2021/10/13 02:19:56;;;;;;;0.10;0.00;;;8.10;90.80;;;;;;4508561;31;20066;-81
2021/10/13 02:23:20;;;;;;;0.10;0.10;;;7.90;90.80;;;;;;4495483;31;20059;-81
2021/10/13 02:30:50;;;;;;;0.08;0.08;;;7.90;90.80;;;;;;4456334;32;20070;-81
2021/10/13 04:37:26;;;;;;;0.10;0.10;;;8.80;90.60;;;;;;5956725;24;20065;-81
2021/10/13 06:09:08;;;;;;;0.30;0.10;;;8.20;91.20;;;;;;6293218;22;20017;-79
2021/10/13 06:11:34;;;;;;;0.25;0.20;;;8.10;91.10;;;;;;6255135;22;20007;-80
2021/10/13 06:17:38;;;;;;;0.20;0.20;;;8.30;91.10;;;;;;6187868;23;20024;-82
2021/10/13 06:21:05;;;;;;;0.65;0.20;;;8.20;91.10;;;;;;6179274;23;20013;-81
2021/10/13 06:31:35;;;;;;;0.28;0.20;;;8.40;91.10;;;;;;6091364;23;20021;-82
2021/10/13 06:35:21;;;;;;;0.10;0.10;;;8.50;91.10;;;;;;5893437;24;20021;-82
2021/10/13 06:37:58;;;;;;;;;;;8.40;91.00;;;;;;5791623;24;20036;-82
2021/10/13 06:40:54;;;;;;;0.15;0.10;;;8.50;91.00;;;;;;5815577;24;19896;-85
2021/10/13 06:43:22;;;;;;;0.05;0.05;;;8.50;91.00;;;;;;5836534;24;20170;-80
2021/10/13 06:45:47;;;;;;;0.17;0.10;;;8.50;90.90;;;;;;5848445;24;20052;-84
2021/10/13 06:48:20;;;;;;;0.68;0.10;;;8.60;91.00;;;;;;5849673;24;20023;-82
2021/10/13 06:50:50;;;;;;;0.10;0.10;;;8.60;91.00;;;;;;5880563;24;20025;-84
2021/10/13 06:53:58;;;;;;;0.20;0.20;;;8.70;91.00;;;;;;5828779;24;20165;-81
2021/10/13 06:56:35;;;;;;;0.15;0.15;;;8.70;91.30;;;;;;5761383;24;20031;-82
2021/10/13 06:59:01;;;;;;;0.57;0.20;;;8.80;91.00;;;;;;5743570;24;20027;-79
2021/10/13 07:01:27;;;;;;;0.10;0.10;;;8.80;91.00;;;;;;5774021;24;20073;-79
2021/10/13 07:03:52;;;;;;;0.75;0.30;;;8.80;91.00;;;;;;5840097;24;20503;-78
2021/10/13 07:06:18;;;;;;;0.30;0.30;;;8.90;91.00;;;;;;5865856;24;20018;-77
2021/10/13 07:08:44;;;;;;;0.13;0.13;;;9.00;91.00;;;;;;5877168;24;20030;-79
2021/10/13 07:11:13;;;;;;;1.08;0.20;;;9.00;91.00;;;;;;5972393;24;20016;-79
2021/10/13 07:13:39;;;;;;;0.52;0.20;;;9.10;91.00;;;;;;5977425;24;20004;-80
2021/10/13 07:16:05;;;;;;;0.10;0.10;;;9.00;91.00;;;;;;5971957;24;20361;-80
2021/10/13 07:18:39;;;;;;;0.20;0.13;;;9.10;91.00;;;;;;5962129;24;20031;-80
2021/10/13 07:21:04;;;;;;;0.20;0.20;;;9.20;91.00;;;;;;5968885;23;20023;-80
2021/10/13 07:23:30;;;;;;;0.10;0.10;;;9.20;90.90;;;;;;6041442;23;20025;-81
2021/10/13 07:25:56;;;;;;;0.38;0.25;;;9.20;90.90;;;;;;6127845;23;20014;-82
2021/10/13 07:28:24;;;;;;;0.17;0.17;;;9.30;90.90;;;;;;6105722;23;20041;-81
2021/10/13 07:30:50;;;;;;;0.30;0.25;;;9.40;90.90;;;;;;6064557;23;20137;-83
2021/10/13 07:33:16;;;;;;;0.38;0.20;;;9.50;90.90;;;;;;6129054;23;20451;-80
2021/10/13 07:35:42;;;;;;;0.22;0.22;;;9.50;90.90;;;;;;6190753;23;20028;-78
2021/10/13 07:38:11;;;;;;;1.55;0.20;;;9.60;90.90;;;;;;6194108;23;20008;-78
2021/10/13 07:40:37;;;;;;;0.55;0.10;;;9.60;90.80;;;;;;6187869;23;20074;-79
2021/10/13 07:43:03;;;;;;;0.30;0.20;;;9.70;90.80;;;;;;6161796;23;20103;-79
2021/10/13 07:45:29;;;;;;;0.38;0.13;;;9.80;90.70;;;;;;6193833;23;20012;-80
2021/10/13 07:47:55;;;;;;;0.20;0.20;;;9.90;90.80;;;;;;6162347;23;20047;-80
2021/10/13 07:50:31;;;;;;;0.40;0.25;;;9.90;90.70;;;;;;6190979;23;20124;-81
2021/10/13 07:52:56;;;;;;;0.13;0.13;;;9.90;90.70;;;;;;6193451;23;20009;-79
2021/10/13 07:55:22;;;;;;;0.40;0.30;;;9.90;90.70;;;;;;6189950;23;20016;-79
2021/10/13 07:57:48;;;;;;;0.22;0.22;;;10.00;90.80;;;;;;6213803;23;20351;-79
2021/10/13 08:00:16;;;;;;;0.10;0.10;;;10.10;91.10;;;;;;6191068;23;20036;-79
2021/10/13 08:02:44;;;;;;;0.30;0.30;;;10.30;90.80;;;;;;6297692;22;20510;-79
2021/10/13 08:05:10;;;;;;;0.20;0.20;;;10.20;90.70;;;;;;6254333;22;20438;-80
2021/10/13 08:07:36;;;;;;;0.30;0.30;;;10.20;90.70;;;;;;6279474;22;20094;-78
2021/10/13 08:10:05;;;;;;;0.82;0.30;;;10.30;90.70;;;;;;6230707;22;20047;-78
2021/10/13 08:12:50;;;;;;;0.22;0.22;;;10.30;90.70;;;;;;6249772;22;20015;-81
2021/10/13 08:15:16;;;;;;;0.52;0.20;;;10.40;90.70;;;;;;6156354;23;20017;-80
2021/10/13 08:18:03;;;;;;;0.25;0.22;;;10.50;90.70;;;;;;6103545;23;20108;-83
2021/10/13 08:20:31;;;;;;;0.20;0.20;;;10.50;90.60;;;;;;6107124;23;20009;-81
2021/10/13 08:22:57;;;;;;;0.45;0.20;;;10.60;90.60;;;;;;6132325;23;20018;-80
2021/10/13 08:25:23;;;;;;;0.20;0.20;;;10.60;90.60;;;;;;6131955;23;20016;-80
2021/10/13 08:27:51;;;;;;;0.35;0.32;;;10.60;90.50;;;;;;6165254;23;20361;-82
2021/10/13 08:30:17;;;;;;;0.25;0.25;;;10.70;90.50;;;;;;6115046;23;20132;-81
2021/10/13 08:32:43;;;;;;;0.70;0.30;;;10.80;90.50;;;;;;6107556;23;20024;-82
2021/10/13 08:35:12;;;;;;;1.90;0.32;;;10.80;90.50;;;;;;6110780;23;20038;-82
2021/10/13 08:37:38;;;;;;;0.57;0.35;;;10.90;90.50;;;;;;6103732;23;20069;-81
2021/10/13 08:40:05;;;;;;;1.27;0.30;;;10.90;90.50;;;;;;6178807;23;20443;-80
2021/10/13 08:42:31;;;;;;;0.80;0.22;;;11.00;90.50;;;;;;6192464;23;20016;-81
2021/10/13 08:44:57;;;;;;;0.73;0.20;;;11.00;90.50;;;;;;6243566;23;20072;-79
2021/10/13 08:47:22;;;;;;;1.50;0.28;;;11.00;90.50;;;;;;6216663;23;20100;-81
2021/10/13 08:49:51;;;;;;;1.75;0.40;;;11.10;90.50;;;;;;6192025;23;20690;-79
2021/10/13 08:52:25;;;;;;;0.32;0.30;;;11.10;90.50;;;;;;6194849;23;20019;-81
2021/10/13 08:54:55;;;;;;;0.30;0.30;;;11.20;90.50;;;;;;6197333;23;20012;-81
2021/10/13 08:57:23;;;;;;;0.90;0.30;;;11.30;90.40;;;;;;6252839;23;20020;-82
2021/10/13 08:59:51;;;;;;;0.60;0.35;;;11.40;90.30;;;;;;6194036;23;20060;-79
2021/10/13 09:02:44;;;;;;;0.57;0.20;;;11.50;90.30;;;;;;6253959;22;20019;-79
2021/10/13 09:05:15;;;;;;;1.33;0.30;;;11.50;90.20;;;;;;6267112;22;20080;-79
2021/10/13 09:07:56;;;;;;;0.60;0.40;;;11.50;90.20;;;;;;6313179;22;20007;-78
2021/10/13 09:10:35;;;;;;;0.25;0.25;;;11.60;90.20;;;;;;6288067;22;20031;-78
2021/10/13 09:13:04;;;;;;;0.77;0.35;;;11.70;90.10;;;;;;6308091;22;20068;-78
2021/10/13 09:15:31;;;;;;;0.30;0.30;;;11.70;90.10;;;;;;6254136;22;20039;-77
2021/10/13 09:18:02;;;;;;;0.35;0.30;;;11.80;90.10;;;;;;6310882;22;20473;-79
2021/10/13 09:20:31;;;;;;;5.82;0.20;;;11.70;90.10;;;;;;6264645;22;20033;-82
2021/10/13 09:23:02;;;;;;;0.50;0.20;;;11.80;90.20;;;;;;6280083;22;20011;-80
2021/10/13 09:25:29;;;;;;;0.22;0.20;;;11.70;90.20;;;;;;6310952;22;20106;-81
2021/10/13 09:27:56;;;;;;;1.15;0.30;;;11.70;90.20;;;;;;6257361;22;20089;-79
2021/10/13 09:30:39;;;;;;;0.95;0.32;;;11.70;90.30;;;;;;6282982;22;20004;-80
2021/10/13 09:33:16;;;;;;;0.93;0.40;;;11.70;90.30;;;;;;6252546;22;20447;-80
2021/10/13 09:35:45;;;;;;;0.60;0.30;;;11.80;90.30;;;;;;6234130;22;20008;-81
2021/10/13 09:38:14;;;;;;;0.70;0.40;;;11.80;90.30;;;;;;6284396;22;20090;-78
2021/10/13 09:40:40;;;;;;;0.38;0.28;;;11.80;90.30;;;;;;6255035;22;20007;-80
2021/10/13 09:43:05;;;;;;;0.30;0.30;;;11.90;90.30;;;;;;6259539;22;20019;-80
2021/10/13 09:45:37;;;;;;;0.95;0.40;;;11.90;90.30;;;;;;6311063;22;20053;-82
2021/10/13 09:51:22;;;;;;;0.70;0.20;;;11.90;90.10;;;;;;6075292;23;20046;-83
2021/10/13 09:53:50;;;;;;;0.55;0.25;;;12.10;90.10;;;;;;6075777;23;20076;-82
2021/10/13 09:56:31;;;;;;;0.22;0.20;;;12.10;90.10;;;;;;6050317;23;20046;-83
2021/10/13 09:59:08;;;;;;;0.25;0.20;;;12.10;90.00;;;;;;6075260;23;20093;-79
2021/10/13 10:01:35;;;;;;;0.20;0.20;;;12.20;90.10;;;;;;6096692;23;20090;-78
2021/10/13 10:04:19;;;;;;;0.77;0.40;;;12.30;90.10;;;;;;6098547;23;20041;-83
2021/10/13 10:06:51;;;;;;;0.40;0.20;;;12.20;90.00;;;;;;6045547;23;20341;-82
2021/10/13 10:09:21;;;;;;;0.30;0.30;;;12.30;90.00;;;;;;6029558;23;20015;-81
2021/10/13 10:12:20;;;;;;;1.35;0.40;;;12.30;90.00;;;;;;6054314;23;20027;-81
2021/10/13 10:14:46;;;;;;;0.85;0.40;;;12.40;89.90;;;;;;5977780;23;20013;-82
2021/10/13 10:17:32;;;;;;;0.30;0.30;;;12.30;89.70;;;;;;5939002;24;20556;-82
2021/10/13 10:19:58;;;;;;;0.38;0.28;;;12.50;89.60;;;;;;5976450;23;20016;-84
2021/10/13 10:22:24;;;;;;;0.63;0.30;;;12.60;89.60;;;;;;6138023;23;20076;-82
2021/10/13 10:24:53;;;;;;;0.60;0.25;;;12.70;89.40;;;;;;6106100;23;20525;-83
2021/10/13 10:27:34;;;;;;;0.40;0.30;;;12.60;89.30;;;;;;6109992;23;20056;-81
2021/10/13 10:30:15;;;;;;;0.65;0.30;;;12.80;89.20;;;;;;6133733;23;20021;-82
2021/10/13 10:32:43;;;;;;;0.77;0.30;;;12.80;88.90;;;;;;6160690;23;20017;-82
2021/10/13 10:35:16;;;;;;;0.85;0.30;;;12.90;89.40;;;;;;6134057;23;20754;-80
2021/10/13 10:37:45;;;;;;;0.85;0.10;;;13.00;88.70;;;;;;6183579;23;20020;-81
2021/10/13 10:40:14;;;;;;;0.75;0.20;;;13.10;88.60;;;;;;6159741;23;20044;-82
2021/10/13 10:42:51;;;;;;;0.75;0.30;;;13.10;88.50;;;;;;6186808;23;20013;-83
2021/10/13 10:45:20;;;;;;;1.20;0.40;;;13.10;88.40;;;;;;6212689;22;20011;-79
2021/10/13 10:47:49;;;;;;;0.20;0.20;;;13.20;88.20;;;;;;6309496;22;20070;-82
2021/10/13 10:50:15;;;;;;;0.38;0.13;;;13.20;88.20;;;;;;6253645;22;20007;-82
2021/10/13 10:53:21;;;;;;;0.30;0.20;;;13.30;88.20;;;;;;6276819;22;20014;-81
2021/10/13 10:55:49;;;;;;;0.95;0.22;;;13.40;88.70;;;;;;6307390;22;20007;-82
2021/10/13 10:58:33;;;;;;;0.68;0.30;;;13.50;87.90;;;;;;6283129;22;20015;-82
2021/10/13 11:01:12;;;;;;;1.23;0.28;;;13.60;87.60;;;;;;6259915;22;20082;-80
2021/10/13 11:03:41;;;;;;;0.10;0.10;;;13.70;87.50;;;;;;6280262;22;20082;-79
2021/10/13 11:06:28;;;;;;;0.20;0.20;;;13.70;87.40;;;;;;6282178;22;20007;-82
2021/10/13 11:09:11;;;;;;;0.60;0.20;;;13.70;87.30;;;;;;6314189;22;20431;-82
2021/10/13 11:11:47;;;;;;;0.65;0.30;;;13.80;87.20;;;;;;6231737;22;20483;-79
2021/10/13 11:14:21;;;;;;;0.68;0.20;;;13.70;87.20;;;;;;6280072;22;20014;-81
2021/10/13 11:16:54;;;;;;;1.45;0.20;;;13.60;87.30;;;;;;6255305;22;20011;-82
2021/10/13 11:19:27;;;;;;;0.20;0.20;;;13.70;87.40;;;;;;6280114;22;20447;-81
2021/10/13 11:22:06;;;;;;;0.85;0.15;;;13.60;87.30;;;;;;6285932;22;20037;-84
2021/10/13 11:24:34;;;;;;;0.20;0.20;;;13.50;87.40;;;;;;6275707;22;20007;-81
2021/10/13 11:27:00;;;;;;;0.30;0.30;;;13.60;87.50;;;;;;6253512;22;20094;-83
2021/10/13 11:29:36;;;;;;;0.45;0.30;;;13.60;87.40;;;;;;6317468;22;20074;-84
2021/10/13 11:32:12;;;;;;;0.45;0.20;;;13.60;87.10;;;;;;6275890;22;20026;-86
2021/10/13 11:34:40;;;;;;;0.32;0.25;;;13.70;87.10;;;;;;6253446;22;20090;-86
2021/10/13 11:37:06;;;;;;;1.00;0.30;;;13.80;87.00;;;;;;6217040;23;20099;-81
2021/10/13 11:39:35;;;;;;;0.40;0.20;;;14.00;86.90;;;;;;6243838;23;20336;-79
2021/10/13 11:42:02;;;;;;;0.30;0.20;;;13.90;86.70;;;;;;6245450;22;20016;-79
2021/10/13 11:44:51;;;;;;;0.95;0.30;;;14.10;86.60;;;;;;6242501;22;20525;-87
2021/10/13 11:47:33;;;;;;;0.90;0.30;;;14.20;86.10;;;;;;6243987;22;20024;-85
2021/10/13 11:50:12;;;;;;;0.50;0.30;;;14.30;85.70;;;;;;6225409;22;20020;-85
2021/10/13 11:52:40;;;;;;;0.22;0.13;;;14.20;85.60;;;;;;6131768;23;20017;-83
2021/10/13 11:55:19;;;;;;;0.82;0.28;;;14.20;85.70;;;;;;6131712;23;20096;-81
2021/10/13 11:57:54;;;;;;;0.82;0.30;;;14.00;85.80;;;;;;6158206;23;20452;-81
2021/10/13 12:00:22;;;;;;;0.25;0.20;;;14.10;86.00;;;;;;6157359;23;20029;-83
2021/10/13 12:03:00;;;;;;;0.38;0.30;;;14.00;86.10;;;;;;6128415;23;20536;-83
2021/10/13 12:05:45;;;;;;;0.25;0.20;;;14.00;86.10;;;;;;6130113;23;20048;-81
2021/10/13 12:13:06;;;;;;;0.10;0.10;;;13.80;86.10;;;;;;5971268;23;20024;-85
2021/10/13 12:15:33;;;;;;;1.38;0.20;;;13.80;86.20;;;;;;5929892;24;20021;-81
2021/10/13 12:18:12;;;;;;;0.75;0.20;;;13.80;86.20;;;;;;5960225;23;20016;-82
2021/10/13 12:20:38;;;;;;;0.10;0.10;;;13.80;86.20;;;;;;6007705;23;20058;-82
2021/10/13 12:23:21;;;;;;;0.35;0.20;;;13.80;86.20;;;;;;6034455;23;20019;-83
2021/10/13 12:26:10;;;;;;;1.00;0.30;;;13.80;86.00;;;;;;6094584;23;20378;-84
2021/10/13 12:28:39;;;;;;;0.50;0.15;;;14.00;86.00;;;;;;6052341;23;20038;-84
2021/10/13 12:31:14;;;;;;;0.10;0.10;;;14.10;85.80;;;;;;6026949;23;20038;-83
2021/10/13 12:33:46;;;;;;;0.30;0.30;;;14.10;85.50;;;;;;5984714;23;20068;-83
2021/10/13 12:36:21;;;;;;;0.25;0.10;;;14.20;85.40;;;;;;5984782;23;20020;-85
2021/10/13 12:38:58;;;;;;;0.55;0.30;;;14.20;85.10;;;;;;5952148;24;20505;-86
2021/10/13 12:41:35;;;;;;;1.77;0.38;;;14.20;85.00;;;;;;5898327;23;20007;-84
2021/10/13 12:44:22;;;;;;;1.13;0.40;;;14.20;85.10;;;;;;6034177;23;20015;-82
2021/10/13 12:47:11;;;;;;;1.00;0.20;;;14.20;85.10;;;;;;6038540;23;20015;-82
2021/10/13 12:49:45;;;;;;;0.32;0.25;;;14.20;85.10;;;;;;6103315;23;20045;-83
2021/10/13 12:52:26;;;;;;;0.68;0.30;;;14.20;85.20;;;;;;6119565;23;20024;-82
2021/10/13 12:54:56;;;;;;;;;;;14.40;85.10;;;;;;6074249;23;20109;-81
2021/10/13 12:57:27;;;;;;;0.10;0.10;;;14.40;85.00;;;;;;6093858;23;19909;-81
2021/10/13 12:59:53;;;;;;;0.10;0.10;;;14.50;84.80;;;;;;6118532;23;20370;-81
2021/10/13 13:02:19;;;;;;;0.88;0.20;;;14.60;84.50;;;;;;6169935;23;20123;-83
2021/10/13 13:04:55;;;;;;;0.30;0.20;;;14.60;84.40;;;;;;6178810;23;20019;-86
2021/10/13 13:07:21;;;;;;;0.75;0.20;;;14.60;84.40;;;;;;6186848;23;20012;-81
2021/10/13 13:09:46;;;;;;;0.80;0.20;;;14.50;84.50;;;;;;6228522;23;20019;-81
2021/10/13 13:12:13;;;;;;;0.40;0.20;;;14.50;84.60;;;;;;6218598;23;20094;-81
2021/10/13 13:14:39;;;;;;;0.20;0.10;;;14.60;84.80;;;;;;6220123;23;20012;-84
2021/10/13 13:17:06;;;;;;;1.05;0.30;;;14.60;84.80;;;;;;6220035;23;20016;-82
2021/10/13 13:19:34;;;;;;;0.15;0.13;;;14.60;84.70;;;;;;6193568;23;20016;-87
2021/10/13 13:22:46;;;;;;;0.65;0.20;;;14.50;84.60;;;;;;6146562;23;20100;-88
2021/10/13 13:25:12;;;;;;;0.10;0.10;;;14.50;84.70;;;;;;6118726;23;20025;-80
2021/10/13 13:27:40;;;;;;;0.38;0.15;;;14.40;84.70;;;;;;6158109;23;20107;-85
2021/10/13 13:30:06;;;;;;;0.55;0.20;;;14.40;84.80;;;;;;6099292;23;20474;-82
2021/10/13 13:32:32;;;;;;;0.63;0.35;;;14.40;84.80;;;;;;6141200;23;20068;-83
2021/10/13 13:34:59;;;;;;;0.40;0.20;;;14.30;84.80;;;;;;6154555;23;20092;-80
2021/10/13 13:37:25;;;;;;;1.75;0.22;;;14.30;84.80;;;;;;6155057;23;20073;-83
2021/10/13 13:39:51;;;;;;;0.38;0.10;;;14.40;84.80;;;;;;6154043;23;20032;-83
2021/10/13 13:42:32;;;;;;;0.15;0.13;;;14.30;84.80;;;;;;6129208;23;20025;-88
2021/10/13 13:48:47;;;;;;;0.32;0.20;;;14.30;85.00;;;;;;6151760;23;20028;-85
2021/10/13 13:51:14;;;;;;;0.80;0.20;;;14.40;85.00;;;;;;6126017;23;20048;-82
2021/10/13 13:53:42;;;;;;;0.50;0.13;;;14.30;84.90;;;;;;6231286;22;20004;-85
2021/10/13 13:56:08;;;;;;;0.85;0.30;;;14.30;84.90;;;;;;6253978;22;20003;-81
2021/10/13 13:58:34;;;;;;;0.35;0.17;;;14.30;85.00;;;;;;6225826;22;20014;-84
2021/10/13 14:01:00;;;;;;;0.10;0.10;;;14.20;85.10;;;;;;6279718;22;20007;-82
2021/10/13 14:03:31;;;;;;;0.52;0.20;;;14.00;85.20;;;;;;6228470;22;20061;-87
2021/10/13 14:05:57;;;;;;;;;;;14.10;85.40;;;;;;6255383;22;20092;-80
2021/10/13 14:08:22;;;;;;;0.10;0.10;;;13.90;85.50;;;;;;6283851;22;19907;-82
2021/10/13 14:11:20;;;;;;;0.25;0.22;;;13.80;85.60;;;;;;6257229;22;20007;-85
2021/10/13 14:13:46;;;;;;;0.20;0.20;;;13.70;85.70;;;;;;6277092;22;20015;-84
2021/10/13 14:16:12;;;;;;;0.13;0.10;;;13.60;86.00;;;;;;6280568;22;20007;-80
2021/10/13 14:18:40;;;;;;;0.32;0.20;;;13.50;86.10;;;;;;6310307;22;20098;-86
2021/10/13 14:21:20;;;;;;;0.30;0.20;;;13.40;86.20;;;;;;6251610;22;20039;-85
2021/10/13 14:23:49;;;;;;;0.52;0.30;;;13.40;86.30;;;;;;6283161;22;20042;-84
2021/10/13 14:26:15;;;;;;;0.20;0.20;;;13.30;86.30;;;;;;6281101;22;20007;-80
2021/10/13 14:28:40;;;;;;;0.13;0.13;;;13.20;86.40;;;;;;6281801;22;20335;-81
2021/10/13 14:31:10;;;;;;;0.43;0.20;;;13.30;86.50;;;;;;6307553;22;20007;-84
2021/10/13 14:33:37;;;;;;;1.00;0.40;;;13.30;86.60;;;;;;6254300;22;20030;-81
2021/10/13 14:36:03;;;;;;;0.10;0.10;;;13.20;86.70;;;;;;6282781;22;20090;-81
2021/10/13 14:38:29;;;;;;;1.35;0.30;;;13.10;86.70;;;;;;6256404;22;20496;-82
2021/10/13 14:40:55;;;;;;;1.17;0.40;;;13.10;86.70;;;;;;6308037;22;20011;-83
2021/10/13 14:43:21;;;;;;;0.52;0.22;;;13.10;86.50;;;;;;6253589;22;20457;-81
2021/10/13 14:46:19;;;;;;;1.88;0.28;;;13.10;86.50;;;;;;6281272;22;20011;-88
2021/10/13 14:48:50;;;;;;;0.35;0.20;;;13.10;86.50;;;;;;6240406;22;20015;-88
2021/10/13 14:51:40;;;;;;;0.17;0.17;;;13.10;86.50;;;;;;6255989;22;20011;-86
2021/10/13 15:06:53;;;;;;;1.00;0.20;;;13.00;86.50;;;;;;6157561;23;20044;-89
2021/10/13 15:21:07;;;;;;;0.25;0.20;;;12.90;86.20;;;;;;6061717;23;20098;-89
2021/10/13 15:23:34;;;;;;;0.70;0.20;;;13.00;86.30;;;;;;5988726;23;20187;-81
2021/10/13 15:26:00;;;;;;;0.20;0.20;;;13.00;86.30;;;;;;6017505;23;20527;-79
2021/10/13 15:28:25;;;;;;;2.30;0.30;;;13.00;86.30;;;;;;6008956;23;20031;-78
2021/10/13 15:30:57;;;;;;;0.47;0.20;;;13.00;86.30;;;;;;6009843;23;20023;-81
2021/10/13 15:34:05;;;;;;;0.10;0.10;;;12.90;86.30;;;;;;5993326;23;20015;-86
2021/10/13 15:36:33;;;;;;;0.25;0.20;;;12.90;86.30;;;;;;6064244;23;20018;-79
2021/10/13 15:38:59;;;;;;;0.35;0.20;;;12.90;86.30;;;;;;6069422;23;20530;-79
2021/10/13 15:41:24;;;;;;;0.10;0.10;;;12.90;86.40;;;;;;6069931;23;20029;-80
2021/10/13 15:43:50;;;;;;;0.13;0.13;;;12.90;86.40;;;;;;6040668;23;20505;-80
2021/10/13 15:46:16;;;;;;;0.47;0.20;;;12.90;86.40;;;;;;6093322;23;20010;-80
2021/10/13 15:48:42;;;;;;;0.63;0.20;;;12.90;86.40;;;;;;6165919;22;20026;-80
2021/10/13 15:51:07;;;;;;;0.13;0.10;;;12.90;86.50;;;;;;6253066;22;20010;-79
2021/10/13 15:53:33;;;;;;;0.43;0.20;;;13.00;86.60;;;;;;6278644;22;20365;-80
2021/10/13 15:55:59;;;;;;;0.52;0.20;;;12.90;86.60;;;;;;6227493;22;20011;-80
2021/10/13 15:58:24;;;;;;;0.82;0.20;;;12.90;86.60;;;;;;6227444;22;20439;-80
2021/10/13 16:00:50;;;;;;;0.55;0.20;;;13.00;86.70;;;;;;6228148;22;20380;-80
2021/10/13 16:03:16;;;;;;;0.20;0.20;;;13.00;86.70;;;;;;6278839;22;20439;-80
2021/10/13 16:05:42;;;;;;;0.65;0.20;;;12.90;86.60;;;;;;6253263;22;20003;-80
2021/10/13 16:08:08;;;;;;;0.30;0.20;;;12.90;86.60;;;;;;6279505;22;20040;-80
2021/10/13 16:10:34;;;;;;;0.17;0.17;;;12.90;86.70;;;;;;6307124;22;20082;-86
2021/10/13 16:13:01;;;;;;;0.30;0.20;;;12.90;86.80;;;;;;6231469;22;20023;-85
2021/10/13 16:15:27;;;;;;;0.40;0.15;;;12.80;86.90;;;;;;6266589;22;20011;-86
2021/10/13 16:17:53;;;;;;;0.10;0.10;;;12.80;87.00;;;;;;6236483;22;20011;-86
2021/10/13 16:20:27;;;;;;;0.25;0.20;;;12.80;87.00;;;;;;6256099;22;20007;-86
2021/10/13 16:22:53;;;;;;;0.20;0.20;;;12.80;87.10;;;;;;6196492;23;20017;-86
2021/10/13 16:25:20;;;;;;;0.10;0.10;;;12.80;87.20;;;;;;6124119;23;20073;-86
2021/10/13 16:27:48;;;;;;;0.43;0.20;;;12.80;87.20;;;;;;6076474;23;20013;-86
2021/10/13 16:30:17;;;;;;;0.20;0.20;;;12.70;87.30;;;;;;6076767;23;20569;-86
2021/10/13 16:32:48;;;;;;;1.05;0.30;;;12.70;87.40;;;;;;6076653;23;20014;-85
2021/10/13 16:35:14;;;;;;;0.65;0.30;;;12.70;87.40;;;;;;6083068;23;20033;-86
2021/10/13 16:37:44;;;;;;;0.38;0.25;;;12.70;87.40;;;;;;5995766;23;20438;-86
2021/10/13 16:40:13;;;;;;;0.20;0.20;;;12.70;87.50;;;;;;5997724;23;20024;-86
2021/10/13 16:42:39;;;;;;;0.20;0.20;;;12.60;87.40;;;;;;6008811;23;20130;-86
2021/10/13 16:45:06;;;;;;;0.52;0.20;;;12.60;87.50;;;;;;5965484;23;20012;-86
2021/10/13 16:47:34;;;;;;;0.20;0.20;;;12.60;87.60;;;;;;6007614;23;20020;-86
2021/10/13 16:50:01;;;;;;;0.70;0.20;;;12.60;87.70;;;;;;6007018;23;20456;-86
2021/10/13 16:52:27;;;;;;;0.45;0.20;;;12.50;87.70;;;;;;6007587;23;20023;-87
2021/10/13 16:54:55;;;;;;;0.10;0.10;;;12.50;87.90;;;;;;6035936;23;20026;-86
2021/10/13 16:57:42;;;;;;;0.65;0.20;;;12.50;87.90;;;;;;6071035;23;20025;-86
2021/10/13 17:00:09;;;;;;;0.10;0.10;;;12.40;88.00;;;;;;6092949;23;20472;-86
2021/10/13 17:02:36;;;;;;;0.38;0.20;;;12.40;88.00;;;;;;6079911;23;20097;-85
2021/10/13 17:05:05;;;;;;;0.30;0.20;;;12.40;88.10;;;;;;6082227;23;20053;-85
2021/10/13 17:07:33;;;;;;;0.22;0.10;;;12.30;88.10;;;;;;6164943;22;20008;-86
2021/10/13 17:10:01;;;;;;;0.17;0.17;;;12.40;88.30;;;;;;6218404;23;20012;-86
2021/10/13 17:12:36;;;;;;;0.10;0.10;;;12.30;88.30;;;;;;6219132;23;20016;-86
2021/10/13 17:15:09;;;;;;;0.20;0.13;;;12.30;88.30;;;;;;6159821;23;20021;-88
2021/10/13 17:17:35;;;;;;;0.20;0.10;;;12.20;88.40;;;;;;6134570;23;20016;-86
2021/10/13 17:22:52;;;;;;;0.68;0.20;;;12.10;88.50;;;;;;6103647;23;20093;-87
2021/10/13 17:25:21;;;;;;;0.45;0.20;;;12.10;88.50;;;;;;6060645;23;20026;-87
2021/10/13 17:28:02;;;;;;;0.22;0.22;;;12.10;88.60;;;;;;5990731;23;20022;-87
2021/10/13 17:30:38;;;;;;;1.08;0.20;;;12.00;88.60;;;;;;6009247;23;20020;-86
2021/10/13 17:33:04;;;;;;;0.20;0.20;;;12.00;88.70;;;;;;6007703;23;20027;-86
2021/10/13 17:35:33;;;;;;;0.63;0.20;;;12.10;88.70;;;;;;6008981;23;20564;-86
2021/10/13 17:37:59;;;;;;;0.20;0.17;;;12.00;88.70;;;;;;5934372;24;20444;-86
2021/10/13 17:40:27;;;;;;;0.30;0.20;;;11.90;88.60;;;;;;5966093;23;20056;-86
2021/10/13 17:42:53;;;;;;;0.20;0.20;;;12.00;88.70;;;;;;6004407;23;20020;-85
2021/10/13 17:45:24;;;;;;;0.50;0.30;;;11.80;88.60;;;;;;6028878;23;20461;-86
2021/10/13 17:47:52;;;;;;;0.15;0.15;;;11.90;88.70;;;;;;6039923;23;20019;-86
2021/10/13 17:50:18;;;;;;;0.52;0.20;;;11.90;88.70;;;;;;6073130;23;20018;-86
2021/10/13 17:52:45;;;;;;;0.30;0.20;;;11.90;88.80;;;;;;6110784;23;20394;-86
2021/10/13 17:55:20;;;;;;;0.20;0.20;;;11.90;89.40;;;;;;6164818;23;20055;-85
2021/10/13 17:57:49;;;;;;;0.20;0.20;;;11.90;88.80;;;;;;6073298;23;20018;-88
2021/10/13 18:00:15;;;;;;;0.10;0.10;;;12.00;88.70;;;;;;5999074;23;20028;-86
2021/10/13 18:02:41;;;;;;;0.17;0.17;;;11.90;88.70;;;;;;6008517;23;20027;-85
2021/10/13 18:05:11;;;;;;;0.30;0.30;;;11.90;88.70;;;;;;5982563;23;20098;-85
2021/10/13 18:07:38;;;;;;;0.20;0.20;;;11.80;88.60;;;;;;5974949;24;20449;-85
2021/10/13 18:10:06;;;;;;;0.43;0.15;;;11.90;88.70;;;;;;5934222;24;20487;-86
2021/10/13 18:12:34;;;;;;;0.30;0.20;;;11.80;88.70;;;;;;5928613;24;20074;-85
2021/10/13 18:15:01;;;;;;;0.20;0.20;;;11.80;88.60;;;;;;5929799;24;20089;-85
2021/10/13 18:17:27;;;;;;;0.10;0.10;;;11.80;88.70;;;;;;5929703;24;20016;-86
2021/10/13 18:19:53;;;;;;;0.28;0.20;;;11.80;88.70;;;;;;5928313;24;20027;-83
2021/10/13 18:22:18;;;;;;;0.10;0.10;;;11.80;88.70;;;;;;5932760;24;20024;-84
2021/10/13 18:25:46;;;;;;;0.38;0.13;;;11.80;88.20;;;;;;5113183;27;20139;-87
2021/10/13 18:28:13;;;;;;;0.20;0.10;;;11.80;88.60;;;;;;5017768;28;20045;-83
2021/10/13 18:30:43;;;;;;;0.20;0.20;;;11.80;88.60;;;;;;5031679;28;20471;-87
2021/10/13 18:33:14;;;;;;;0.13;0.13;;;11.80;88.70;;;;;;5018777;28;20037;-89
2021/10/13 18:35:42;;;;;;;0.17;0.17;;;11.80;88.60;;;;;;5011316;28;20046;-86
2021/10/13 18:38:10;;;;;;;0.28;0.13;;;11.90;88.70;;;;;;4978871;28;20030;-87
2021/10/13 18:40:36;;;;;;;0.10;0.10;;;11.70;88.60;;;;;;4979415;28;20066;-86
2021/10/13 18:43:05;;;;;;;0.22;0.20;;;11.80;88.70;;;;;;4980106;28;20034;-86
2021/10/13 18:45:31;;;;;;;0.50;0.20;;;11.80;88.70;;;;;;4979798;28;20500;-85
2021/10/13 18:48:01;;;;;;;0.10;0.10;;;11.70;88.60;;;;;;4946940;28;20051;-86
2021/10/13 18:50:27;;;;;;;0.10;0.10;;;11.80;88.60;;;;;;4963839;28;20062;-86
2021/10/13 18:52:53;;;;;;;0.20;0.20;;;11.70;88.60;;;;;;4963572;28;20038;-85
2021/10/13 18:55:20;;;;;;;0.40;0.30;;;11.70;88.50;;;;;;4942906;28;20468;-85